Wetterdaten: Woche 07.07.14 - 13.07.14 (KW28)
Datum Zeit Temp. Aussen +5cm Feuchte Auss Luftdruck Regen Sonnenschein Regendauer UV Solar Windben
07.07.2014 00:00 15,7 C 14,3 C 95 % 1011,4 hPa 0,0 l/m 0,00 h 0,00 h 0,0 UV-I 0 W/m 9,1 km/h (2 Bft)
07.07.2014 01:00 15,4 C 14,0 C 95 % 1012,4 hPa 0,0 l/m 0,00 h 0,00 h 0,0 UV-I 0 W/m 10,0 km/h (2 Bft)
07.07.2014 02:00 14,8 C 13,5 C 95 % 1013,3 hPa 0,0 l/m 0,00 h 0,00 h 0,0 UV-I 0 W/m 13,3 km/h (3 Bft)
07.07.2014 03:00 14,0 C 12,9 C 96 % 1013,9 hPa 0,0 l/m 0,00 h 0,00 h 0,0 UV-I 0 W/m 9,7 km/h (2 Bft)
07.07.2014 04:00 13,6 C 12,5 C 96 % 1014,4 hPa 0,0 l/m 0,00 h 0,00 h 0,0 UV-I 0 W/m 10,8 km/h (2 Bft)
07.07.2014 05:00 13,1 C 12,1 C 95 % 1014,9 hPa 0,0 l/m 0,00 h 0,00 h 0,0 UV-I 10 W/m 13,3 km/h (3 Bft)
07.07.2014 06:00 13,1 C 12,1 C 94 % 1015,5 hPa 0,0 l/m 0,03 h 0,00 h 0,0 UV-I 49 W/m 13,7 km/h (3 Bft)
07.07.2014 07:00 13,5 C 12,3 C 92 % 1016,2 hPa 0,0 l/m 0,77 h 0,00 h 0,0 UV-I 235 W/m 14,7 km/h (3 Bft)
07.07.2014 08:00 14,9 C 12,9 C 88 % 1016,8 hPa 0,0 l/m 1,00 h 0,00 h 0,7 UV-I 381 W/m 17,6 km/h (3 Bft)
07.07.2014 09:00 16,8 C 14,7 C 84 % 1017,0 hPa 0,0 l/m 1,00 h 0,00 h 1,7 UV-I 558 W/m 13,3 km/h (3 Bft)
07.07.2014 10:00 18,6 C 19,9 C 77 % 1017,3 hPa 0,0 l/m 1,00 h 0,00 h 2,5 UV-I 582 W/m 13,0 km/h (3 Bft)
07.07.2014 11:00 19,6 C 21,8 C 73 % 1017,6 hPa 0,0 l/m 1,00 h 0,00 h 3,6 UV-I 638 W/m 11,2 km/h (2 Bft)
07.07.2014 12:00 20,8 C 24,0 C 64 % 1017,8 hPa 0,0 l/m 0,87 h 0,00 h 4,3 UV-I 730 W/m 10,0 km/h (2 Bft)
07.07.2014 13:00 21,8 C 23,3 C 59 % 1017,5 hPa 0,0 l/m 1,00 h 0,00 h 4,6 UV-I 718 W/m 6,9 km/h (2 Bft)
07.07.2014 14:00 21,8 C 23,1 C 60 % 1017,3 hPa 0,0 l/m 0,93 h 0,00 h 3,9 UV-I 641 W/m 7,9 km/h (2 Bft)
07.07.2014 15:00 22,2 C 25,2 C 57 % 1016,9 hPa 0,0 l/m 1,00 h 0,00 h 3,7 UV-I 673 W/m 9,7 km/h (2 Bft)
07.07.2014 16:00 22,6 C 24,3 C 55 % 1016,4 hPa 0,0 l/m 0,70 h 0,00 h 2,5 UV-I 552 W/m 11,4 km/h (2 Bft)
07.07.2014 17:00 22,7 C 21,8 C 52 % 1015,8 hPa 0,0 l/m 0,57 h 0,00 h 0,9 UV-I 379 W/m 11,6 km/h (2 Bft)
07.07.2014 18:00 22,5 C 21,2 C 53 % 1015,5 hPa 0,0 l/m 0,97 h 0,00 h 0,6 UV-I 388 W/m 10,7 km/h (2 Bft)
07.07.2014 19:00 22,1 C 20,6 C 57 % 1015,4 hPa 0,0 l/m 0,53 h 0,00 h 0,0 UV-I 187 W/m 11,0 km/h (2 Bft)
07.07.2014 20:00 21,0 C 19,1 C 62 % 1015,1 hPa 0,0 l/m 0,00 h 0,00 h 0,0 UV-I 61 W/m 8,7 km/h (2 Bft)
07.07.2014 21:00 19,7 C 17,6 C 68 % 1014,8 hPa 0,0 l/m 0,00 h 0,00 h 0,0 UV-I 18 W/m 2,2 km/h (1 Bft)
07.07.2014 22:00 18,4 C 16,4 C 74 % 1014,7 hPa 0,0 l/m 0,00 h 0,00 h 0,0 UV-I 0 W/m 4,3 km/h (1 Bft)
07.07.2014 23:00 17,7 C 16,0 C 78 % 1014,3 hPa 0,0 l/m 0,00 h 0,00 h 0,0 UV-I 0 W/m 1,1 km/h (1 Bft)
08.07.2014 00:00 17,2 C 15,7 C 83 % 1013,9 hPa 0,0 l/m 0,00 h 0,00 h 0,0 UV-I 0 W/m 0,0 km/h (0 Bft)
08.07.2014 01:00 16,9 C 15,3 C 85 % 1013,2 hPa 0,0 l/m 0,00 h 0,00 h 0,0 UV-I 0 W/m 0,3 km/h (0 Bft)
08.07.2014 02:00 16,9 C 15,3 C 83 % 1012,7 hPa 0,0 l/m 0,00 h 0,00 h 0,0 UV-I 0 W/m 0,8 km/h (0 Bft)
08.07.2014 03:00 16,8 C 15,6 C 83 % 1012,0 hPa 0,0 l/m 0,00 h 0,00 h 0,0 UV-I 0 W/m 5,0 km/h (1 Bft)
08.07.2014 04:00 16,7 C 15,3 C 84 % 1011,2 hPa 0,0 l/m 0,00 h 0,00 h 0,0 UV-I 0 W/m 9,4 km/h (2 Bft)
08.07.2014 05:00 16,2 C 14,2 C 88 % 1010,9 hPa 0,0 l/m 0,00 h 0,97 h 0,0 UV-I 5 W/m 6,4 km/h (2 Bft)
08.07.2014 06:00 15,6 C 13,9 C 92 % 1010,4 hPa 0,4 l/m 0,00 h 0,97 h 0,0 UV-I 13 W/m 9,4 km/h (2 Bft)
08.07.2014 07:00 15,2 C 13,9 C 95 % 1010,1 hPa 1,0 l/m 0,00 h 1,00 h 0,0 UV-I 25 W/m 10,1 km/h (2 Bft)
08.07.2014 08:00 14,9 C 13,9 C 97 % 1009,6 hPa 4,0 l/m 0,00 h 1,00 h 0,0 UV-I 35 W/m 13,9 km/h (3 Bft)
08.07.2014 09:00 14,8 C 13,9 C 98 % 1009,1 hPa 3,2 l/m 0,00 h 1,00 h 0,0 UV-I 41 W/m 16,0 km/h (3 Bft)
08.07.2014 10:00 15,0 C 13,9 C 98 % 1008,5 hPa 6,2 l/m 0,00 h 1,00 h 0,0 UV-I 36 W/m 18,1 km/h (3 Bft)
08.07.2014 11:00 15,0 C 13,9 C 99 % 1008,4 hPa 2,4 l/m 0,00 h 1,00 h 0,0 UV-I 49 W/m 19,6 km/h (3 Bft)
08.07.2014 12:00 14,6 C 13,8 C 99 % 1008,4 hPa 1,8 l/m 0,00 h 0,97 h 0,0 UV-I 65 W/m 21,8 km/h (4 Bft)
08.07.2014 13:00 15,1 C 14,1 C 99 % 1008,4 hPa 2,4 l/m 0,00 h 1,00 h 0,0 UV-I 72 W/m 20,0 km/h (4 Bft)
08.07.2014 14:00 15,1 C 14,1 C 99 % 1008,6 hPa 4,2 l/m 0,00 h 1,00 h 0,0 UV-I 78 W/m 21,5 km/h (4 Bft)
08.07.2014 15:00 14,8 C 13,9 C 99 % 1008,6 hPa 1,8 l/m 0,00 h 1,00 h 0,0 UV-I 65 W/m 24,2 km/h (4 Bft)
08.07.2014 16:00 14,5 C 13,8 C 99 % 1008,9 hPa 1,8 l/m 0,00 h 1,00 h 0,0 UV-I 61 W/m 23,0 km/h (4 Bft)
08.07.2014 17:00 14,0 C 13,1 C 99 % 1009,3 hPa 1,6 l/m 0,00 h 1,00 h 0,0 UV-I 52 W/m 23,0 km/h (4 Bft)
08.07.2014 18:00 13,7 C 12,9 C 98 % 1009,8 hPa 0,4 l/m 0,00 h 0,97 h 0,0 UV-I 79 W/m 15,2 km/h (3 Bft)
08.07.2014 19:00 14,2 C 13,3 C 99 % 1009,9 hPa 0,6 l/m 0,00 h 1,00 h 0,0 UV-I 41 W/m 18,5 km/h (3 Bft)
08.07.2014 20:00 14,0 C 12,9 C 98 % 1010,3 hPa 0,4 l/m 0,00 h 1,00 h 0,0 UV-I 13 W/m 17,0 km/h (3 Bft)
08.07.2014 21:00 13,6 C 12,3 C 98 % 1010,7 hPa 0,4 l/m 0,00 h 1,00 h 0,0 UV-I 0 W/m 15,1 km/h (3 Bft)
08.07.2014 22:00 13,1 C 12,0 C 98 % 1011,1 hPa 1,0 l/m 0,00 h 1,00 h 0,0 UV-I 0 W/m 11,1 km/h (2 Bft)
08.07.2014 23:00 12,7 C 11,7 C 98 % 1011,2 hPa 0,2 l/m 0,00 h 0,97 h 0,0 UV-I 0 W/m 12,9 km/h (3 Bft)
09.07.2014 00:00 12,5 C 11,7 C 98 % 1011,0 hPa 0,2 l/m 0,00 h 0,78 h 0,0 UV-I 0 W/m 11,4 km/h (2 Bft)
09.07.2014 01:00 12,7 C 11,7 C 98 % 1011,1 hPa 0,0 l/m 0,00 h 0,70 h 0,0 UV-I 0 W/m 8,0 km/h (2 Bft)
09.07.2014 02:00 12,6 C 11,7 C 99 % 1010,7 hPa 0,4 l/m 0,00 h 1,00 h 0,0 UV-I 0 W/m 12,0 km/h (2 Bft)
09.07.2014 03:00 12,4 C 11,7 C 99 % 1010,4 hPa 0,4 l/m 0,00 h 1,00 h 0,0 UV-I 0 W/m 14,8 km/h (3 Bft)
09.07.2014 04:00 12,3 C 11,6 C 99 % 1010,0 hPa 0,0 l/m 0,00 h 0,70 h 0,0 UV-I 0 W/m 16,9 km/h (3 Bft)
09.07.2014 05:00 12,0 C 11,1 C 99 % 1009,7 hPa 0,8 l/m 0,00 h 1,00 h 0,0 UV-I 0 W/m 17,4 km/h (3 Bft)
09.07.2014 06:00 12,1 C 11,2 C 99 % 1009,3 hPa 2,6 l/m 0,00 h 0,98 h 0,0 UV-I 11 W/m 16,0 km/h (3 Bft)
09.07.2014 07:00 12,3 C 11,7 C 99 % 1008,8 hPa 1,6 l/m 0,00 h 1,00 h 0,0 UV-I 16 W/m 20,6 km/h (4 Bft)
09.07.2014 08:00 12,6 C 11,7 C 99 % 1008,3 hPa 2,4 l/m 0,00 h 1,00 h 0,0 UV-I 31 W/m 21,8 km/h (4 Bft)
09.07.2014 09:00 12,6 C 11,7 C 99 % 1007,6 hPa 3,4 l/m 0,00 h 1,00 h 0,0 UV-I 41 W/m 25,8 km/h (4 Bft)
09.07.2014 10:00 12,7 C 11,7 C 99 % 1007,1 hPa 5,4 l/m 0,00 h 1,00 h 0,0 UV-I 37 W/m 24,6 km/h (4 Bft)
09.07.2014 11:00 13,0 C 12,1 C 99 % 1006,3 hPa 2,2 l/m 0,00 h 1,00 h 0,0 UV-I 63 W/m 25,4 km/h (4 Bft)
09.07.2014 12:00 13,5 C 12,6 C 99 % 1005,5 hPa 1,4 l/m 0,00 h 0,98 h 0,0 UV-I 76 W/m 26,2 km/h (4 Bft)
09.07.2014 13:00 14,1 C 13,1 C 100 % 1005,0 hPa 2,8 l/m 0,00 h 1,00 h 0,0 UV-I 68 W/m 20,2 km/h (4 Bft)
09.07.2014 14:00 14,7 C 13,8 C 100 % 1004,7 hPa 1,8 l/m 0,00 h 1,00 h 0,0 UV-I 78 W/m 16,9 km/h (3 Bft)
09.07.2014 15:00 15,2 C 14,2 C 100 % 1004,6 hPa 2,8 l/m 0,00 h 0,93 h 0,0 UV-I 55 W/m 11,5 km/h (2 Bft)
09.07.2014 16:00 15,7 C 14,6 C 100 % 1004,5 hPa 0,6 l/m 0,00 h 0,73 h 0,0 UV-I 40 W/m 6,6 km/h (2 Bft)
09.07.2014 17:00 16,4 C 15,4 C 100 % 1004,2 hPa 0,2 l/m 0,00 h 0,00 h 0,0 UV-I 41 W/m 14,9 km/h (3 Bft)
09.07.2014 18:00 17,2 C 16,1 C 100 % 1004,3 hPa 0,4 l/m 0,00 h 0,30 h 0,0 UV-I 31 W/m 21,6 km/h (4 Bft)
09.07.2014 19:00 17,3 C 16,1 C 100 % 1004,5 hPa 0,8 l/m 0,00 h 0,73 h 0,0 UV-I 13 W/m 20,5 km/h (4 Bft)
09.07.2014 20:00 17,3 C 16,1 C 100 % 1004,9 hPa 3,4 l/m 0,00 h 0,30 h 0,0 UV-I 8 W/m 17,2 km/h (3 Bft)
09.07.2014 21:00 17,5 C 16,1 C 100 % 1005,4 hPa 1,0 l/m 0,00 h 0,50 h 0,0 UV-I 0 W/m 13,6 km/h (3 Bft)
09.07.2014 22:00 17,7 C 16,2 C 100 % 1005,4 hPa 0,2 l/m 0,00 h 0,03 h 0,0 UV-I 0 W/m 12,5 km/h (3 Bft)
09.07.2014 23:00 17,9 C 16,7 C 100 % 1005,4 hPa 0,0 l/m 0,00 h 0,00 h 0,0 UV-I 0 W/m 13,5 km/h (3 Bft)
10.07.2014 00:00 18,1 C 16,7 C 100 % 1005,6 hPa 0,0 l/m 0,00 h 0,03 h 0,0 UV-I 0 W/m 8,1 km/h (2 Bft)
10.07.2014 01:00 18,1 C 16,5 C 100 % 1006,0 hPa 0,0 l/m 0,00 h 0,13 h 0,0 UV-I 0 W/m 0,8 km/h (0 Bft)
10.07.2014 02:00 18,1 C 16,1 C 100 % 1006,2 hPa 0,0 l/m 0,00 h 0,17 h 0,0 UV-I 0 W/m 0,0 km/h (0 Bft)
10.07.2014 03:00 18,1 C 16,0 C 100 % 1006,4 hPa 0,0 l/m 0,00 h 0,00 h 0,0 UV-I 0 W/m 1,3 km/h (1 Bft)
10.07.2014 04:00 18,1 C 15,6 C 100 % 1006,5 hPa 0,0 l/m 0,00 h 0,00 h 0,0 UV-I 0 W/m 0,2 km/h (0 Bft)
10.07.2014 05:00 17,1 C 15,6 C 100 % 1006,8 hPa 0,0 l/m 0,00 h 0,00 h 0,0 UV-I 7 W/m 0,1 km/h (0 Bft)
10.07.2014 06:00 16,6 C 15,6 C 100 % 1007,1 hPa 0,0 l/m 0,00 h 0,00 h 0,0 UV-I 19 W/m 0,0 km/h (0 Bft)
10.07.2014 07:00 17,2 C 16,5 C 100 % 1007,7 hPa 0,0 l/m 0,00 h 0,00 h 0,0 UV-I 45 W/m 4,8 km/h (1 Bft)
10.07.2014 08:00 18,1 C 17,1 C 100 % 1008,5 hPa 0,0 l/m 0,00 h 0,00 h 0,0 UV-I 53 W/m 5,7 km/h (1 Bft)
10.07.2014 09:00 17,9 C 17,4 C 100 % 1008,9 hPa 0,0 l/m 0,13 h 0,00 h 0,8 UV-I 140 W/m 1,1 km/h (1 Bft)
10.07.2014 10:00 19,3 C 19,2 C 100 % 1009,3 hPa 0,0 l/m 0,07 h 0,00 h 0,9 UV-I 234 W/m 6,4 km/h (2 Bft)
10.07.2014 11:00 20,6 C 20,5 C 96 % 1009,5 hPa 0,0 l/m 0,30 h 0,00 h 1,8 UV-I 315 W/m 11,6 km/h (2 Bft)
10.07.2014 12:00 22,0 C 22,9 C 89 % 1009,7 hPa 0,0 l/m 0,57 h 0,00 h 3,1 UV-I 517 W/m 12,4 km/h (3 Bft)
10.07.2014 13:00 23,5 C 23,8 C 83 % 1009,8 hPa 0,0 l/m 0,47 h 0,00 h 3,7 UV-I 538 W/m 5,8 km/h (2 Bft)
10.07.2014 14:00 24,5 C 24,2 C 79 % 1009,9 hPa 0,0 l/m 0,43 h 0,00 h 3,4 UV-I 523 W/m 8,2 km/h (2 Bft)
10.07.2014 15:00 25,5 C 25,1 C 76 % 1009,9 hPa 0,0 l/m 0,47 h 0,00 h 2,8 UV-I 510 W/m 9,2 km/h (2 Bft)
10.07.2014 16:00 26,2 C 26,1 C 72 % 1009,9 hPa 0,0 l/m 0,82 h 0,00 h 2,5 UV-I 555 W/m 10,6 km/h (2 Bft)
10.07.2014 17:00 26,6 C 25,2 C 71 % 1009,8 hPa 0,0 l/m 1,00 h 0,00 h 1,3 UV-I 462 W/m 11,1 km/h (2 Bft)
10.07.2014 18:00 26,5 C 24,5 C 72 % 1009,8 hPa 0,0 l/m 0,93 h 0,00 h 0,6 UV-I 349 W/m 12,1 km/h (2 Bft)
10.07.2014 19:00 25,8 C 22,8 C 75 % 1009,9 hPa 0,0 l/m 0,47 h 0,00 h 0,0 UV-I 137 W/m 10,1 km/h (2 Bft)
10.07.2014 20:00 24,0 C 21,3 C 84 % 1010,5 hPa 0,0 l/m 0,00 h 0,00 h 0,0 UV-I 30 W/m 10,1 km/h (2 Bft)
10.07.2014 21:00 22,3 C 20,4 C 90 % 1010,8 hPa 0,0 l/m 0,00 h 0,00 h 0,0 UV-I 11 W/m 17,4 km/h (3 Bft)
10.07.2014 22:00 20,8 C 19,1 C 93 % 1011,8 hPa 0,6 l/m 0,00 h 0,33 h 0,0 UV-I 0 W/m 16,6 km/h (3 Bft)
10.07.2014 23:00 18,3 C 16,6 C 94 % 1012,2 hPa 4,4 l/m 0,00 h 0,57 h 0,0 UV-I 0 W/m 10,4 km/h (2 Bft)
11.07.2014 00:00 17,3 C 16,0 C 97 % 1012,3 hPa 0,2 l/m 0,00 h 0,27 h 0,0 UV-I 0 W/m 5,9 km/h (2 Bft)
11.07.2014 01:00 17,7 C 16,5 C 98 % 1012,6 hPa 0,0 l/m 0,00 h 0,00 h 0,0 UV-I 0 W/m 14,6 km/h (3 Bft)
11.07.2014 02:00 17,3 C 16,1 C 99 % 1012,6 hPa 0,0 l/m 0,00 h 0,17 h 0,0 UV-I 0 W/m 11,9 km/h (2 Bft)
11.07.2014 03:00 17,0 C 15,7 C 99 % 1012,3 hPa 0,0 l/m 0,00 h 0,00 h 0,0 UV-I 0 W/m 14,3 km/h (3 Bft)
11.07.2014 04:00 16,7 C 15,5 C 99 % 1012,5 hPa 0,0 l/m 0,00 h 0,00 h 0,0 UV-I 0 W/m 13,5 km/h (3 Bft)
11.07.2014 05:00 16,5 C 15,3 C 99 % 1012,8 hPa 0,0 l/m 0,00 h 0,00 h 0,0 UV-I 8 W/m 1,3 km/h (1 Bft)
11.07.2014 06:00 16,4 C 15,3 C 99 % 1013,0 hPa 0,0 l/m 0,07 h 0,00 h 0,0 UV-I 47 W/m 0,9 km/h (0 Bft)
11.07.2014 07:00 16,7 C 16,0 C 99 % 1013,1 hPa 0,0 l/m 0,00 h 0,00 h 0,0 UV-I 48 W/m 4,3 km/h (1 Bft)
11.07.2014 08:00 17,1 C 16,6 C 98 % 1013,7 hPa 0,0 l/m 0,00 h 0,00 h 0,0 UV-I 99 W/m 6,4 km/h (2 Bft)
11.07.2014 09:00 18,0 C 17,6 C 95 % 1014,1 hPa 0,0 l/m 0,23 h 0,00 h 1,1 UV-I 228 W/m 5,5 km/h (1 Bft)
11.07.2014 10:00 19,6 C 19,7 C 89 % 1014,1 hPa 0,0 l/m 0,70 h 0,00 h 1,7 UV-I 378 W/m 9,6 km/h (2 Bft)
11.07.2014 11:00 20,8 C 21,6 C 85 % 1014,1 hPa 0,0 l/m 0,47 h 0,00 h 2,7 UV-I 492 W/m 8,9 km/h (2 Bft)
11.07.2014 12:00 21,5 C 22,5 C 82 % 1014,0 hPa 0,0 l/m 0,47 h 0,00 h 2,8 UV-I 425 W/m 10,6 km/h (2 Bft)
11.07.2014 13:00 22,5 C 23,5 C 80 % 1013,7 hPa 0,0 l/m 0,70 h 0,00 h 3,5 UV-I 549 W/m 10,3 km/h (2 Bft)
11.07.2014 14:00 22,5 C 23,2 C 81 % 1013,6 hPa 0,0 l/m 0,47 h 0,00 h 2,7 UV-I 412 W/m 12,8 km/h (3 Bft)
11.07.2014 15:00 22,5 C 22,9 C 82 % 1013,4 hPa 0,0 l/m 0,17 h 0,00 h 1,9 UV-I 323 W/m 12,7 km/h (3 Bft)
11.07.2014 16:00 22,5 C 22,6 C 82 % 1013,3 hPa 0,0 l/m 0,07 h 0,00 h 1,2 UV-I 255 W/m 11,7 km/h (2 Bft)
11.07.2014 17:00 22,6 C 22,1 C 82 % 1013,1 hPa 0,0 l/m 0,00 h 0,00 h 0,6 UV-I 194 W/m 12,5 km/h (3 Bft)
11.07.2014 18:00 22,2 C 21,1 C 84 % 1013,2 hPa 0,0 l/m 0,00 h 0,00 h 0,0 UV-I 109 W/m 10,4 km/h (2 Bft)
11.07.2014 19:00 21,5 C 20,2 C 85 % 1013,5 hPa 0,0 l/m 0,00 h 0,00 h 0,0 UV-I 58 W/m 9,2 km/h (2 Bft)
11.07.2014 20:00 21,3 C 20,0 C 86 % 1013,1 hPa 0,0 l/m 0,00 h 0,00 h 0,0 UV-I 52 W/m 11,3 km/h (2 Bft)
11.07.2014 21:00 20,6 C 19,0 C 88 % 1013,7 hPa 0,0 l/m 0,10 h 0,00 h 0,0 UV-I 19 W/m 6,8 km/h (2 Bft)
11.07.2014 22:00 20,0 C 18,3 C 90 % 1013,9 hPa 0,0 l/m 0,00 h 0,00 h 0,0 UV-I 0 W/m 7,6 km/h (2 Bft)
11.07.2014 23:00 19,3 C 17,8 C 92 % 1013,9 hPa 0,0 l/m 0,00 h 0,00 h 0,0 UV-I 0 W/m 13,1 km/h (3 Bft)
12.07.2014 00:00 18,6 C 17,2 C 92 % 1013,9 hPa 0,0 l/m 0,00 h 0,00 h 0,0 UV-I 0 W/m 11,3 km/h (2 Bft)
12.07.2014 01:00 18,4 C 17,2 C 92 % 1013,8 hPa 0,0 l/m 0,00 h 0,00 h 0,0 UV-I 0 W/m 13,2 km/h (3 Bft)
12.07.2014 02:00 18,0 C 16,9 C 94 % 1013,8 hPa 0,0 l/m 0,00 h 0,00 h 0,0 UV-I 0 W/m 12,4 km/h (3 Bft)
12.07.2014 03:00 17,5 C 16,7 C 94 % 1013,7 hPa 0,0 l/m 0,00 h 0,00 h 0,0 UV-I 0 W/m 14,4 km/h (3 Bft)
12.07.2014 04:00 17,3 C 16,3 C 95 % 1013,2 hPa 0,0 l/m 0,00 h 0,00 h 0,0 UV-I 0 W/m 11,5 km/h (2 Bft)
12.07.2014 05:00 17,1 C 16,1 C 96 % 1013,2 hPa 0,0 l/m 0,00 h 0,00 h 0,0 UV-I 6 W/m 8,1 km/h (2 Bft)
12.07.2014 06:00 16,9 C 16,0 C 98 % 1013,4 hPa 0,0 l/m 0,00 h 0,13 h 0,0 UV-I 10 W/m 5,8 km/h (2 Bft)
12.07.2014 07:00 16,9 C 16,1 C 99 % 1013,3 hPa 0,2 l/m 0,00 h 0,20 h 0,0 UV-I 26 W/m 6,5 km/h (2 Bft)
12.07.2014 08:00 17,1 C 16,3 C 99 % 1013,3 hPa 0,0 l/m 0,00 h 0,00 h 0,0 UV-I 55 W/m 5,0 km/h (1 Bft)
12.07.2014 09:00 17,2 C 16,4 C 99 % 1013,4 hPa 0,0 l/m 0,00 h 0,00 h 0,0 UV-I 43 W/m 4,3 km/h (1 Bft)
12.07.2014 10:00 17,3 C 16,7 C 99 % 1013,5 hPa 0,0 l/m 0,00 h 0,03 h 0,0 UV-I 71 W/m 6,1 km/h (2 Bft)
12.07.2014 11:00 18,1 C 18,0 C 98 % 1013,3 hPa 0,0 l/m 0,00 h 0,00 h 0,8 UV-I 213 W/m 12,2 km/h (2 Bft)
12.07.2014 12:00 18,6 C 18,3 C 95 % 1013,1 hPa 0,0 l/m 0,07 h 0,00 h 1,1 UV-I 229 W/m 15,2 km/h (3 Bft)
12.07.2014 13:00 20,0 C 20,7 C 90 % 1012,8 hPa 0,0 l/m 0,53 h 0,00 h 2,9 UV-I 456 W/m 18,5 km/h (3 Bft)
12.07.2014 14:00 20,5 C 21,1 C 88 % 1012,5 hPa 0,0 l/m 0,33 h 0,00 h 2,6 UV-I 368 W/m 20,4 km/h (4 Bft)
12.07.2014 15:00 20,8 C 21,5 C 86 % 1012,4 hPa 0,0 l/m 0,33 h 0,00 h 2,1 UV-I 389 W/m 19,2 km/h (3 Bft)
12.07.2014 16:00 21,4 C 22,2 C 84 % 1012,3 hPa 0,0 l/m 0,67 h 0,00 h 1,7 UV-I 421 W/m 19,6 km/h (3 Bft)
12.07.2014 17:00 21,0 C 21,1 C 84 % 1011,9 hPa 0,0 l/m 0,33 h 0,00 h 0,8 UV-I 291 W/m 17,5 km/h (3 Bft)
12.07.2014 18:00 20,3 C 20,0 C 86 % 1011,7 hPa 0,0 l/m 0,13 h 0,00 h 0,5 UV-I 197 W/m 17,6 km/h (3 Bft)
12.07.2014 19:00 19,5 C 18,9 C 87 % 1011,7 hPa 0,0 l/m 0,00 h 0,00 h 0,0 UV-I 101 W/m 14,8 km/h (3 Bft)
12.07.2014 20:00 19,0 C 18,0 C 89 % 1011,9 hPa 0,0 l/m 0,00 h 0,00 h 0,0 UV-I 38 W/m 14,8 km/h (3 Bft)
12.07.2014 21:00 18,2 C 17,0 C 92 % 1012,0 hPa 0,0 l/m 0,13 h 0,00 h 0,0 UV-I 14 W/m 10,5 km/h (2 Bft)
12.07.2014 22:00 17,4 C 16,1 C 95 % 1012,1 hPa 0,0 l/m 0,00 h 0,00 h 0,0 UV-I 0 W/m 5,8 km/h (2 Bft)
12.07.2014 23:00 17,4 C 16,3 C 95 % 1012,0 hPa 0,0 l/m 0,00 h 0,00 h 0,0 UV-I 0 W/m 5,4 km/h (1 Bft)
13.07.2014 00:00 17,4 C 16,6 C 96 % 1011,8 hPa 0,0 l/m 0,00 h 0,00 h 0,0 UV-I 0 W/m 7,7 km/h (2 Bft)
13.07.2014 01:00 17,2 C 16,1 C 96 % 1011,3 hPa 0,0 l/m 0,00 h 0,00 h 0,0 UV-I 0 W/m 8,0 km/h (2 Bft)
13.07.2014 02:00 16,8 C 15,9 C 97 % 1010,8 hPa 0,0 l/m 0,00 h 0,00 h 0,0 UV-I 0 W/m 9,5 km/h (2 Bft)
13.07.2014 03:00 16,6 C 15,6 C 97 % 1010,5 hPa 0,0 l/m 0,00 h 0,00 h 0,0 UV-I 0 W/m 6,2 km/h (2 Bft)
13.07.2014 04:00 16,6 C 15,6 C 97 % 1010,0 hPa 0,0 l/m 0,00 h 0,00 h 0,0 UV-I 0 W/m 5,6 km/h (1 Bft)
13.07.2014 05:00 16,7 C 15,6 C 97 % 1009,8 hPa 0,0 l/m 0,00 h 0,00 h 0,0 UV-I 7 W/m 2,9 km/h (1 Bft)
13.07.2014 06:00 16,8 C 16,0 C 96 % 1009,3 hPa 0,0 l/m 0,10 h 0,00 h 0,0 UV-I 44 W/m 4,4 km/h (1 Bft)
13.07.2014 07:00 17,3 C 16,7 C 94 % 1009,0 hPa 0,0 l/m 0,03 h 0,00 h 0,0 UV-I 82 W/m 8,1 km/h (2 Bft)
13.07.2014 08:00 17,5 C 17,0 C 93 % 1008,6 hPa 0,0 l/m 0,00 h 0,00 h 0,0 UV-I 102 W/m 10,8 km/h (2 Bft)
13.07.2014 09:00 17,1 C 16,2 C 94 % 1008,6 hPa 0,0 l/m 0,00 h 0,03 h 0,0 UV-I 46 W/m 16,9 km/h (3 Bft)
13.07.2014 10:00 17,4 C 17,0 C 92 % 1008,5 hPa 0,0 l/m 0,00 h 0,00 h 0,6 UV-I 136 W/m 16,9 km/h (3 Bft)
13.07.2014 11:00 17,6 C 17,3 C 91 % 1008,6 hPa 0,0 l/m 0,00 h 0,00 h 0,8 UV-I 152 W/m 20,0 km/h (4 Bft)
13.07.2014 12:00 18,1 C 18,0 C 89 % 1008,5 hPa 0,0 l/m 0,03 h 0,07 h 1,2 UV-I 211 W/m 18,1 km/h (3 Bft)
13.07.2014 13:00 19,4 C 19,7 C 86 % 1008,2 hPa 0,0 l/m 0,23 h 0,00 h 1,9 UV-I 324 W/m 13,6 km/h (3 Bft)
13.07.2014 14:00 20,4 C 20,5 C 82 % 1007,8 hPa 0,0 l/m 0,10 h 0,00 h 1,5 UV-I 271 W/m 10,0 km/h (2 Bft)
13.07.2014 15:00 21,4 C 21,5 C 79 % 1007,3 hPa 0,0 l/m 0,33 h 0,00 h 1,9 UV-I 357 W/m 12,2 km/h (2 Bft)
13.07.2014 16:00 22,0 C 22,0 C 78 % 1006,8 hPa 1,4 l/m 0,63 h 0,10 h 2,5 UV-I 428 W/m 12,8 km/h (3 Bft)
13.07.2014 17:00 19,6 C 18,4 C 92 % 1006,5 hPa 1,2 l/m 0,50 h 0,13 h 0,8 UV-I 320 W/m 13,3 km/h (3 Bft)
13.07.2014 18:00 20,0 C 18,6 C 90 % 1006,3 hPa 0,0 l/m 0,03 h 0,23 h 0,5 UV-I 157 W/m 5,8 km/h (2 Bft)
13.07.2014 19:00 19,8 C 18,2 C 92 % 1006,3 hPa 0,0 l/m 0,00 h 0,03 h 0,0 UV-I 85 W/m 7,1 km/h (2 Bft)
13.07.2014 20:00 19,5 C 17,7 C 92 % 1006,4 hPa 0,0 l/m 0,00 h 0,37 h 0,0 UV-I 35 W/m 1,6 km/h (1 Bft)
13.07.2014 21:00 18,8 C 16,9 C 96 % 1006,6 hPa 0,0 l/m 0,00 h 0,00 h 0,0 UV-I 9 W/m 2,3 km/h (1 Bft)
13.07.2014 22:00 18,1 C 16,5 C 96 % 1007,1 hPa 0,4 l/m 0,00 h 0,53 h 0,0 UV-I 0 W/m 11,2 km/h (2 Bft)
13.07.2014 23:00 17,4 C 16,1 C 98 % 1007,3 hPa 0,0 l/m 0,00 h 0,07 h 0,0 UV-I 0 W/m 13,6 km/h (3 Bft)
Min-Datum _ 09.07.14 09.07.14 07.07.14 09.07.14 - - - - - 07.07.14
_ Min-Zeit 05:16 04:50 17:14 17:20 - - - - - 00:06
Minimum _ 12,0 C 11,1 C 49 % 1004,1 hPa - - - - - 0,0 km/h (0 Bft)
Max-Datum _ 10.07.14 07.07.14 09.07.14 07.07.14 08.07.14 07.07.14 08.07.14 07.07.14 07.07.14 08.07.14
_ Max-Zeit 16:54 15:54 12:44 12:08 10:42 06:58 05:00 12:50 12:50 17:34
Maximum _ 27,3 C 28,3 C 100 % 1017,8 hPa 6,2 l/m 0,03 h 0,03 h 5,9 UV-I 986 W/m 52,3 km/h
N (7 Bft)
Durchschnitt _ 17,9 C 17,0 C 91 % 1010,9 hPa #77,0 l/m #24:59 h #40:15 h 2,0 UV-I 189 W/m 11,4 km/h (2 Bft)
© 2014 W. Hausmann